createdAt,value
2022-08-31T00:00:06.912Z,18.44
2022-08-31T00:02:49.537Z,18.41
2022-08-31T00:05:20.136Z,18.40
2022-08-31T00:07:50.351Z,18.37
2022-08-31T00:10:32.717Z,18.38
2022-08-31T00:13:08.687Z,18.40
2022-08-31T00:15:39.286Z,18.44
2022-08-31T00:18:09.724Z,18.50
2022-08-31T00:20:40.757Z,18.46
2022-08-31T00:23:14.333Z,18.44
2022-08-31T00:25:51.572Z,18.34
2022-08-31T00:28:22.864Z,18.33
2022-08-31T00:30:53.562Z,18.26
2022-08-31T00:33:23.649Z,18.25
2022-08-31T00:35:53.868Z,18.21
2022-08-31T00:38:25.077Z,18.19
2022-08-31T00:40:57.964Z,18.23
2022-08-31T00:43:44.117Z,18.19
2022-08-31T00:46:17.825Z,18.19
2022-08-31T00:48:56.732Z,18.23
2022-08-31T00:51:28.272Z,18.26
2022-08-31T00:53:58.806Z,18.24
2022-08-31T00:56:31.804Z,18.21
2022-08-31T00:59:02.894Z,18.20
2022-08-31T01:01:33.355Z,18.22
2022-08-31T01:04:03.742Z,18.17
2022-08-31T01:06:34.515Z,18.13
2022-08-31T01:09:06.859Z,18.09
2022-08-31T01:11:42.337Z,18.12
2022-08-31T01:14:13.744Z,18.08
2022-08-31T01:16:50.141Z,18.07
2022-08-31T01:19:32.341Z,18.06
2022-08-31T01:22:14.500Z,18.01
2022-08-31T01:24:50.473Z,17.99
2022-08-31T01:27:28.656Z,17.96
2022-08-31T01:30:02.386Z,17.93
2022-08-31T01:32:32.709Z,17.92
2022-08-31T01:35:03.003Z,17.88
2022-08-31T01:37:33.182Z,17.86
2022-08-31T01:40:11.312Z,17.81
2022-08-31T01:42:41.991Z,17.79
2022-08-31T01:45:14.680Z,17.77
2022-08-31T01:47:45.086Z,17.70
2022-08-31T01:50:15.436Z,17.57
2022-08-31T01:52:45.657Z,17.43
2022-08-31T01:55:18.487Z,17.41
2022-08-31T01:57:48.775Z,17.41
2022-08-31T02:00:44.242Z,17.38
2022-08-31T02:03:14.718Z,17.34
2022-08-31T02:05:44.951Z,17.30
2022-08-31T02:08:15.441Z,17.32
2022-08-31T02:10:48.670Z,17.35
2022-08-31T02:13:19.677Z,17.35
2022-08-31T02:15:51.298Z,17.35
2022-08-31T02:18:21.524Z,17.31
2022-08-31T02:20:52.963Z,17.31
2022-08-31T02:23:23.612Z,17.28
2022-08-31T02:25:56.390Z,17.29
2022-08-31T02:28:26.781Z,17.27
2022-08-31T02:30:58.393Z,17.29
2022-08-31T02:33:28.674Z,17.30
2022-08-31T02:36:01.221Z,17.30
2022-08-31T02:38:31.615Z,17.35
2022-08-31T02:41:04.609Z,17.36
2022-08-31T02:43:35.320Z,17.37
2022-08-31T02:46:05.801Z,17.40
2022-08-31T02:48:41.886Z,17.38
2022-08-31T02:51:16.372Z,17.38
2022-08-31T02:53:50.883Z,17.36
2022-08-31T02:56:23.958Z,17.32
2022-08-31T02:58:55.325Z,17.33
2022-08-31T03:01:29.356Z,17.32
2022-08-31T03:04:00.997Z,17.32
2022-08-31T03:06:31.937Z,17.31
2022-08-31T03:09:02.792Z,17.31
2022-08-31T03:11:35.864Z,17.25
2022-08-31T03:14:07.140Z,17.22
2022-08-31T03:16:37.431Z,17.22
2022-08-31T03:19:08.111Z,17.19
2022-08-31T03:21:39.746Z,17.15
2022-08-31T03:24:10.544Z,17.11
2022-08-31T03:26:44.234Z,17.03
2022-08-31T03:29:14.850Z,16.95
2022-08-31T03:32:04.616Z,16.85
2022-08-31T03:34:35.655Z,16.79
2022-08-31T03:37:06.037Z,16.78
2022-08-31T03:39:36.562Z,16.73
2022-08-31T03:42:09.913Z,16.73
2022-08-31T03:44:41.678Z,16.70
2022-08-31T03:47:19.780Z,16.65
2022-08-31T03:49:52.138Z,16.60
2022-08-31T03:52:39.901Z,16.58
2022-08-31T03:55:16.820Z,16.59
2022-08-31T03:57:49.725Z,16.62
2022-08-31T04:00:20.269Z,16.63
2022-08-31T04:03:00.210Z,16.67
2022-08-31T04:05:39.483Z,16.70
2022-08-31T04:08:45.171Z,16.74
2022-08-31T04:11:45.500Z,16.78
2022-08-31T04:14:37.214Z,16.84
2022-08-31T04:17:26.195Z,16.83
2022-08-31T04:20:06.933Z,16.88
2022-08-31T04:22:46.578Z,16.90
2022-08-31T04:25:45.872Z,16.90
2022-08-31T04:28:16.151Z,16.91
2022-08-31T04:30:51.303Z,16.88
2022-08-31T04:33:21.543Z,16.89
2022-08-31T04:35:52.000Z,16.92
2022-08-31T04:38:22.982Z,16.95
2022-08-31T04:40:53.272Z,16.95
2022-08-31T04:43:24.322Z,16.91
2022-08-31T04:45:57.634Z,16.92
2022-08-31T04:48:28.040Z,16.89
2022-08-31T04:51:04.516Z,16.92
2022-08-31T04:53:36.401Z,16.96
2022-08-31T04:56:14.579Z,17.04
2022-08-31T04:58:47.942Z,17.07
2022-08-31T05:01:24.234Z,17.10
2022-08-31T05:04:32.961Z,17.12
2022-08-31T05:07:03.282Z,17.10
2022-08-31T05:09:33.632Z,17.06
2022-08-31T05:12:04.190Z,17.03
2022-08-31T05:14:35.413Z,17.06
2022-08-31T05:17:16.757Z,17.13
2022-08-31T05:19:47.416Z,17.16
2022-08-31T05:22:19.427Z,17.17
2022-08-31T05:24:51.907Z,17.21
2022-08-31T05:27:22.084Z,17.25
2022-08-31T05:29:52.258Z,17.30
2022-08-31T05:32:44.385Z,17.34
2022-08-31T05:35:15.426Z,17.32
2022-08-31T05:37:48.426Z,17.42
2022-08-31T05:40:18.743Z,17.40
2022-08-31T05:42:48.982Z,17.46
2022-08-31T05:45:19.611Z,17.52
2022-08-31T05:47:53.805Z,17.65
2022-08-31T05:50:24.078Z,17.78
2022-08-31T05:52:54.254Z,17.91
2022-08-31T05:55:24.468Z,18.00
2022-08-31T05:57:54.650Z,18.07
2022-08-31T06:00:25.575Z,18.15
2022-08-31T06:03:09.126Z,18.21
2022-08-31T06:05:39.331Z,18.28
2022-08-31T06:08:13.207Z,18.28
2022-08-31T06:10:46.684Z,18.34
2022-08-31T06:13:17.586Z,18.40
2022-08-31T06:15:48.139Z,18.39
2022-08-31T06:18:21.040Z,18.38
2022-08-31T06:20:52.172Z,18.46
2022-08-31T06:23:22.819Z,18.54
2022-08-31T06:25:54.697Z,18.61
2022-08-31T06:28:25.118Z,18.56
2022-08-31T06:30:55.960Z,18.63
2022-08-31T06:33:29.822Z,18.70
2022-08-31T06:36:17.519Z,18.82
2022-08-31T06:39:02.693Z,18.83
2022-08-31T06:41:52.762Z,18.90
2022-08-31T06:44:31.106Z,18.99
2022-08-31T06:47:23.486Z,19.14
2022-08-31T06:49:57.429Z,19.25
2022-08-31T06:52:27.772Z,19.31
2022-08-31T06:55:20.727Z,19.37
2022-08-31T06:58:11.886Z,19.46
2022-08-31T07:00:45.803Z,19.53
2022-08-31T07:03:33.384Z,19.61
2022-08-31T07:06:12.910Z,19.65
2022-08-31T07:08:45.062Z,19.73
2022-08-31T07:11:17.487Z,19.81
2022-08-31T07:13:47.744Z,19.89
2022-08-31T07:16:22.211Z,20.01
2022-08-31T07:18:54.832Z,20.05
2022-08-31T07:21:32.046Z,20.08
2022-08-31T07:24:06.102Z,20.14
2022-08-31T07:26:40.942Z,20.20
2022-08-31T07:29:15.019Z,20.26
2022-08-31T07:31:46.901Z,20.35
2022-08-31T07:34:20.978Z,20.46
2022-08-31T07:37:27.027Z,20.49
2022-08-31T07:40:10.704Z,20.61
2022-08-31T07:42:45.124Z,20.62
2022-08-31T07:45:22.633Z,20.68
2022-08-31T07:47:56.389Z,20.79
2022-08-31T07:50:31.852Z,20.88
2022-08-31T07:53:25.046Z,20.96
2022-08-31T07:56:03.787Z,21.01
2022-08-31T07:58:35.526Z,21.07
2022-08-31T08:01:05.821Z,21.17
2022-08-31T08:03:36.684Z,21.23
2022-08-31T08:06:32.443Z,21.31
2022-08-31T08:09:27.049Z,21.39
2022-08-31T08:12:07.763Z,21.43
2022-08-31T08:14:46.868Z,21.46
2022-08-31T08:17:52.632Z,21.53
2022-08-31T08:20:35.396Z,21.66
2022-08-31T08:23:14.729Z,21.78
2022-08-31T08:26:21.281Z,21.89
2022-08-31T08:29:17.744Z,22.11
2022-08-31T08:31:52.329Z,22.24
2022-08-31T08:34:24.158Z,22.48
2022-08-31T08:37:03.855Z,22.75
2022-08-31T08:39:34.079Z,23.01
2022-08-31T08:42:17.732Z,23.29
2022-08-31T08:44:48.375Z,23.60
2022-08-31T08:47:24.004Z,24.04
2022-08-31T08:50:06.589Z,25.09
2022-08-31T08:52:43.442Z,25.92
2022-08-31T08:55:18.409Z,26.65
2022-08-31T08:57:56.155Z,27.01
2022-08-31T09:00:28.807Z,27.25
2022-08-31T09:03:09.602Z,27.62
2022-08-31T09:06:13.008Z,28.41
2022-08-31T09:09:19.899Z,29.31
2022-08-31T09:12:19.096Z,29.89
2022-08-31T09:15:18.033Z,29.52
2022-08-31T09:18:00.002Z,29.32
2022-08-31T09:20:33.946Z,29.28
2022-08-31T09:23:08.097Z,29.20
2022-08-31T09:25:52.674Z,29.33
2022-08-31T09:28:49.681Z,29.16
2022-08-31T09:31:40.649Z,28.39
2022-08-31T09:34:16.906Z,27.76
2022-08-31T09:36:47.570Z,28.06
2022-08-31T09:39:25.051Z,28.43
2022-08-31T09:42:04.776Z,28.36
2022-08-31T09:44:37.974Z,28.49
2022-08-31T09:47:52.991Z,28.36
2022-08-31T09:50:35.785Z,28.31
2022-08-31T09:53:29.276Z,28.16
2022-08-31T09:56:17.016Z,28.73
2022-08-31T09:58:51.377Z,28.64
2022-08-31T10:01:29.184Z,28.04
2022-08-31T10:04:23.562Z,27.98
2022-08-31T10:07:01.894Z,28.02
2022-08-31T10:09:45.145Z,27.84
2022-08-31T10:12:25.961Z,27.49
2022-08-31T10:15:04.179Z,27.05
2022-08-31T10:17:39.925Z,26.67
2022-08-31T10:20:18.724Z,26.44
2022-08-31T10:22:54.352Z,26.27
2022-08-31T10:25:31.225Z,26.21
2022-08-31T10:28:12.702Z,26.51
2022-08-31T10:30:52.810Z,26.51
2022-08-31T10:33:47.266Z,26.46
2022-08-31T10:36:20.789Z,26.44
2022-08-31T10:38:52.783Z,26.41
2022-08-31T10:41:30.947Z,26.36
2022-08-31T10:44:10.059Z,26.59
2022-08-31T10:46:40.419Z,26.78
2022-08-31T10:49:11.771Z,27.05
2022-08-31T10:51:53.269Z,27.29
2022-08-31T10:54:35.617Z,27.56
2022-08-31T10:57:25.918Z,27.65
2022-08-31T11:00:04.696Z,27.57
2022-08-31T11:02:48.875Z,27.52
2022-08-31T11:05:37.455Z,27.37
2022-08-31T11:08:35.326Z,27.26
2022-08-31T11:11:09.183Z,26.93
2022-08-31T11:14:02.276Z,26.80
2022-08-31T11:16:55.269Z,26.76
2022-08-31T11:20:00.208Z,26.76
2022-08-31T11:23:03.013Z,26.80
2022-08-31T11:26:24.219Z,26.75
2022-08-31T11:29:00.242Z,26.83
2022-08-31T11:31:36.137Z,26.92
2022-08-31T11:34:17.456Z,26.82
2022-08-31T11:36:54.907Z,26.99
2022-08-31T11:39:44.562Z,26.86
2022-08-31T11:43:01.536Z,27.03
2022-08-31T11:45:34.706Z,27.04
2022-08-31T11:48:05.048Z,27.07
2022-08-31T11:51:07.796Z,27.14
2022-08-31T11:53:44.573Z,27.37
2022-08-31T11:56:15.359Z,27.52
2022-08-31T11:58:50.368Z,27.53
2022-08-31T12:01:43.213Z,27.44
2022-08-31T12:05:03.172Z,27.43
2022-08-31T12:07:43.214Z,27.39
2022-08-31T12:10:36.983Z,27.48
2022-08-31T12:13:40.595Z,27.48
2022-08-31T12:16:49.835Z,27.57
2022-08-31T12:20:01.897Z,27.46
2022-08-31T12:23:30.436Z,27.48
2022-08-31T12:26:16.593Z,27.42
2022-08-31T12:29:20.094Z,27.61
2022-08-31T12:32:19.979Z,27.67
2022-08-31T12:35:11.570Z,27.86
2022-08-31T12:37:43.033Z,27.96
2022-08-31T12:40:27.153Z,27.97
2022-08-31T12:43:06.111Z,28.13
2022-08-31T12:46:32.136Z,28.17
2022-08-31T12:49:22.219Z,28.02
2022-08-31T12:51:58.050Z,27.90
2022-08-31T12:55:04.469Z,28.03
2022-08-31T12:58:08.890Z,27.84
2022-08-31T13:00:43.600Z,27.48
2022-08-31T13:03:23.420Z,27.36
2022-08-31T13:06:10.120Z,27.18
2022-08-31T13:08:44.766Z,27.04
2022-08-31T13:11:41.200Z,27.13
2022-08-31T13:14:18.739Z,27.17
2022-08-31T13:16:53.719Z,27.21
2022-08-31T13:19:27.579Z,27.25
2022-08-31T13:22:05.239Z,27.30
2022-08-31T13:24:41.326Z,27.17
2022-08-31T13:27:19.760Z,27.10
2022-08-31T13:29:53.476Z,27.03
2022-08-31T13:32:36.331Z,26.91
2022-08-31T13:35:15.275Z,26.81
2022-08-31T13:38:05.069Z,26.72
2022-08-31T13:40:40.790Z,26.66
2022-08-31T13:43:13.677Z,26.61
2022-08-31T13:45:58.677Z,26.57
2022-08-31T13:48:35.151Z,26.58
2022-08-31T13:51:13.609Z,26.58
2022-08-31T13:53:49.611Z,26.70
2022-08-31T13:56:38.194Z,27.06
2022-08-31T13:59:36.190Z,27.84
2022-08-31T14:02:30.854Z,28.42
2022-08-31T14:05:13.061Z,28.85
2022-08-31T14:08:02.221Z,29.05
2022-08-31T14:10:40.729Z,29.09
2022-08-31T14:13:21.570Z,29.11
2022-08-31T14:15:56.472Z,29.08
2022-08-31T14:18:30.636Z,29.11
2022-08-31T14:21:24.055Z,29.02
2022-08-31T14:24:01.500Z,28.82
2022-08-31T14:26:37.595Z,28.73
2022-08-31T14:29:12.482Z,28.44
2022-08-31T14:31:49.474Z,28.33
2022-08-31T14:34:30.479Z,28.13
2022-08-31T14:37:06.591Z,27.93
2022-08-31T14:39:41.837Z,27.69
2022-08-31T14:42:20.007Z,27.46
2022-08-31T14:44:56.853Z,27.27
2022-08-31T14:47:30.468Z,27.06
2022-08-31T14:50:05.942Z,26.85
2022-08-31T14:52:36.983Z,26.62
2022-08-31T14:55:11.245Z,26.41
2022-08-31T14:57:47.042Z,26.26
2022-08-31T15:00:23.423Z,26.14
2022-08-31T15:02:56.738Z,25.97
2022-08-31T15:05:28.530Z,25.75
2022-08-31T15:07:59.708Z,25.59
2022-08-31T15:10:30.586Z,25.44
2022-08-31T15:13:08.753Z,25.31
2022-08-31T15:15:39.310Z,25.16
2022-08-31T15:18:09.993Z,25.08
2022-08-31T15:20:42.012Z,25.01
2022-08-31T15:23:12.264Z,24.87
2022-08-31T15:25:45.287Z,24.78
2022-08-31T15:28:18.599Z,24.69
2022-08-31T15:30:48.898Z,24.59
2022-08-31T15:33:21.661Z,24.58
2022-08-31T15:35:52.079Z,24.50
2022-08-31T15:38:24.223Z,24.48
2022-08-31T15:40:54.440Z,24.47
2022-08-31T15:43:27.314Z,24.43
2022-08-31T15:45:57.676Z,24.37
2022-08-31T15:48:40.873Z,24.30
2022-08-31T15:51:21.947Z,24.24
2022-08-31T15:54:18.392Z,24.10
2022-08-31T15:56:45.526Z,24.05
2022-08-31T15:59:18.332Z,23.97
2022-08-31T16:01:48.552Z,23.91
2022-08-31T16:04:23.465Z,23.84
2022-08-31T16:06:55.642Z,23.78
2022-08-31T16:09:26.076Z,23.76
2022-08-31T16:11:56.423Z,23.65
2022-08-31T16:14:29.561Z,23.62
2022-08-31T16:17:00.167Z,23.54
2022-08-31T16:19:35.434Z,23.48
2022-08-31T16:22:08.198Z,23.42
2022-08-31T16:24:39.837Z,23.35
2022-08-31T16:27:13.114Z,23.27
2022-08-31T16:29:51.757Z,23.22
2022-08-31T16:32:22.457Z,23.18
2022-08-31T16:34:52.742Z,23.12
2022-08-31T16:37:23.982Z,23.05
2022-08-31T16:39:54.326Z,23.01
2022-08-31T16:42:24.974Z,22.98
2022-08-31T16:45:01.978Z,22.94
2022-08-31T16:47:33.038Z,22.89
2022-08-31T16:50:00.921Z,22.84
2022-08-31T16:52:32.563Z,22.79
2022-08-31T16:55:02.800Z,22.73
2022-08-31T16:57:35.328Z,22.65
2022-08-31T17:00:10.154Z,22.59
2022-08-31T17:02:40.381Z,22.53
2022-08-31T17:05:12.979Z,22.49
2022-08-31T17:07:43.639Z,22.40
2022-08-31T17:10:15.085Z,22.35
2022-08-31T17:12:48.437Z,22.31
2022-08-31T17:15:24.092Z,22.24
2022-08-31T17:17:55.240Z,22.18
2022-08-31T17:20:25.440Z,22.12
2022-08-31T17:22:57.279Z,22.04
2022-08-31T17:25:27.504Z,21.96
2022-08-31T17:28:01.040Z,21.92
2022-08-31T17:30:34.609Z,21.86
2022-08-31T17:33:06.039Z,21.82
2022-08-31T17:35:36.967Z,21.79
2022-08-31T17:38:07.241Z,21.72
2022-08-31T17:40:37.536Z,21.71
2022-08-31T17:43:07.868Z,21.64
2022-08-31T17:45:41.302Z,21.57
2022-08-31T17:48:11.584Z,21.50
2022-08-31T17:50:45.036Z,21.44
2022-08-31T17:53:15.218Z,21.41
2022-08-31T17:55:45.399Z,21.37
2022-08-31T17:58:15.726Z,21.33
2022-08-31T18:00:50.664Z,21.29
2022-08-31T18:03:20.918Z,21.24
2022-08-31T18:05:51.954Z,21.17
2022-08-31T18:08:24.551Z,21.15
2022-08-31T18:10:56.669Z,21.15
2022-08-31T18:13:27.064Z,21.09
2022-08-31T18:16:03.234Z,21.07
2022-08-31T18:18:33.535Z,21.01
2022-08-31T18:21:08.366Z,20.96
2022-08-31T18:23:39.024Z,20.93
2022-08-31T18:26:16.863Z,20.87
2022-08-31T18:28:47.792Z,20.83
2022-08-31T18:31:30.816Z,20.81
2022-08-31T18:34:01.293Z,20.77
2022-08-31T18:36:37.210Z,20.75
2022-08-31T18:39:10.657Z,20.70
2022-08-31T18:41:53.542Z,20.65
2022-08-31T18:44:36.202Z,20.60
2022-08-31T18:47:13.189Z,20.56
2022-08-31T18:49:44.795Z,20.54
2022-08-31T18:52:19.342Z,20.49
2022-08-31T18:54:51.925Z,20.46
2022-08-31T18:57:25.057Z,20.43
2022-08-31T18:59:55.433Z,20.41
2022-08-31T19:02:28.358Z,20.35
2022-08-31T19:04:58.824Z,20.29
2022-08-31T19:07:29.141Z,20.26
2022-08-31T19:09:59.341Z,20.26
2022-08-31T19:12:29.511Z,20.24
2022-08-31T19:15:00.174Z,20.19
2022-08-31T19:17:32.877Z,20.12
2022-08-31T19:20:04.110Z,20.12
2022-08-31T19:22:34.345Z,20.10
2022-08-31T19:25:04.922Z,20.09
2022-08-31T19:27:35.390Z,20.08
2022-08-31T19:30:06.144Z,20.08
2022-08-31T19:32:39.557Z,20.02
2022-08-31T19:35:10.749Z,20.02
2022-08-31T19:37:40.899Z,19.98
2022-08-31T19:40:17.947Z,20.00
2022-08-31T19:45:44.965Z,19.94
2022-08-31T19:48:23.932Z,19.92
2022-08-31T19:50:56.968Z,19.86
2022-08-31T19:53:27.956Z,19.90
2022-08-31T19:55:58.372Z,19.88
2022-08-31T19:58:28.628Z,19.85
2022-08-31T20:01:01.142Z,19.82
2022-08-31T20:03:34.446Z,19.79
2022-08-31T20:06:09.608Z,19.70
2022-08-31T20:08:39.956Z,19.66
2022-08-31T20:11:11.239Z,19.59
2022-08-31T20:13:42.966Z,19.56
2022-08-31T20:16:14.880Z,19.53
2022-08-31T20:18:49.108Z,19.50
2022-08-31T20:21:23.538Z,19.47
2022-08-31T20:24:00.757Z,19.47
2022-08-31T20:26:36.113Z,19.45
2022-08-31T20:29:10.960Z,19.41
2022-08-31T20:31:45.708Z,19.39
2022-08-31T20:34:21.958Z,19.35
2022-08-31T20:36:58.545Z,19.38
2022-08-31T20:39:35.411Z,19.34
2022-08-31T20:42:07.353Z,19.34
2022-08-31T20:44:40.256Z,19.31
2022-08-31T20:47:25.400Z,19.29
2022-08-31T20:50:01.267Z,19.28
2022-08-31T20:52:35.143Z,19.27
2022-08-31T20:55:08.671Z,19.20
2022-08-31T20:57:40.977Z,19.19
2022-08-31T21:00:15.846Z,19.16
2022-08-31T21:02:46.720Z,19.15
2022-08-31T21:05:38.502Z,19.13
2022-08-31T21:08:09.466Z,19.12
2022-08-31T21:10:41.184Z,19.08
2022-08-31T21:13:15.683Z,19.05
2022-08-31T21:15:48.687Z,19.01
2022-08-31T21:18:19.741Z,19.00
2022-08-31T21:20:52.796Z,18.99
2022-08-31T21:23:23.650Z,18.95
2022-08-31T21:25:55.299Z,18.87
2022-08-31T21:28:25.612Z,18.81
2022-08-31T21:31:15.513Z,18.81
2022-08-31T21:33:49.745Z,18.81
2022-08-31T21:36:26.817Z,18.80
2022-08-31T21:38:59.409Z,18.79
2022-08-31T21:41:32.315Z,18.76
2022-08-31T21:44:03.271Z,18.76
2022-08-31T21:46:34.768Z,18.77
2022-08-31T21:49:05.899Z,18.74
2022-08-31T21:51:44.028Z,18.69
2022-08-31T21:54:16.403Z,18.65
2022-08-31T21:56:50.666Z,18.64
2022-08-31T21:59:24.640Z,18.61
2022-08-31T22:01:59.200Z,18.62
2022-08-31T22:04:30.223Z,18.68
2022-08-31T22:07:03.640Z,18.73
2022-08-31T22:09:35.048Z,18.73
2022-08-31T22:12:07.543Z,18.78
2022-08-31T22:14:41.495Z,18.75
2022-08-31T22:17:14.434Z,18.77
2022-08-31T22:19:45.074Z,18.73
2022-08-31T22:22:19.600Z,18.71
2022-08-31T22:24:49.925Z,18.71
2022-08-31T22:27:20.102Z,18.68
2022-08-31T22:29:50.519Z,18.66
2022-08-31T22:32:20.934Z,18.65
2022-08-31T22:34:51.212Z,18.63
2022-08-31T22:37:24.055Z,18.62
2022-08-31T22:39:55.408Z,18.62
2022-08-31T22:42:25.645Z,18.60
2022-08-31T22:44:56.239Z,18.58
2022-08-31T22:47:26.502Z,18.54
2022-08-31T22:49:56.945Z,18.48
2022-08-31T22:52:29.761Z,18.44
2022-08-31T22:55:00.146Z,18.44
2022-08-31T22:57:30.293Z,18.45
2022-08-31T23:00:00.669Z,18.42
2022-08-31T23:02:31.410Z,18.43
2022-08-31T23:05:03.519Z,18.40
2022-08-31T23:07:36.806Z,18.42
2022-08-31T23:10:09.488Z,18.38
2022-08-31T23:12:40.092Z,18.37
2022-08-31T23:15:15.162Z,18.41
2022-08-31T23:17:47.768Z,18.39
2022-08-31T23:20:24.507Z,18.41
2022-08-31T23:22:58.115Z,18.38
2022-08-31T23:25:28.475Z,18.37
2022-08-31T23:27:58.912Z,18.34
2022-08-31T23:30:30.354Z,18.30
2022-08-31T23:33:02.345Z,18.28
2022-08-31T23:35:33.699Z,18.26
2022-08-31T23:38:06.607Z,18.22
2022-08-31T23:40:37.113Z,18.18
2022-08-31T23:43:11.023Z,18.17
2022-08-31T23:45:42.050Z,18.15
2022-08-31T23:48:12.742Z,18.10
2022-08-31T23:50:43.130Z,18.06
2022-08-31T23:53:17.510Z,18.00
2022-08-31T23:55:50.748Z,17.96
2022-08-31T23:58:21.034Z,17.92
